Time;durP1;ratioP1;P1;durP2;ratioP2;P2;SDS_P1;SDS_P2;PMS_P1;PMS_P2;Temp;Humidity;BMP_temperature;BMP_pressure;BME280_temperature;BME280_humidity;BME280_pressure;Samples;Min_cycle;Max_cycle;Signal;HPM_P1;HPM_P2
2023/04/22 00:01:23;;;;;;;122.20;44.53;;;;;;;7.90;100.00;100827.25;5052098;28;20029;-44
2023/04/22 00:03:49;;;;;;;152.50;48.38;;;;;;;7.93;100.00;100842.16;5052344;28;20047;-41
2023/04/22 00:06:14;;;;;;;157.52;47.33;;;;;;;7.91;100.00;100850.34;5052048;28;20116;-43
2023/04/22 00:08:39;;;;;;;143.85;48.92;;;;;;;7.89;100.00;100838.97;5053502;28;20033;-45
2023/04/22 00:11:05;;;;;;;136.77;47.55;;;;;;;7.89;100.00;100837.13;5051638;28;20021;-40
2023/04/22 00:13:30;;;;;;;141.63;48.85;;;;;;;7.90;100.00;100846.03;5051541;28;20029;-41
2023/04/22 00:15:56;;;;;;;143.68;50.38;;;;;;;7.86;100.00;100840.13;5070954;28;20052;-43
2023/04/22 00:18:21;;;;;;;136.60;48.95;;;;;;;7.83;100.00;100842.31;5055354;28;20035;-41
2023/04/22 00:20:47;;;;;;;142.43;49.72;;;;;;;7.77;100.00;100837.63;5063197;28;20441;-41
2023/04/22 00:23:12;;;;;;;141.20;47.90;;;;;;;7.73;100.00;100830.91;5066514;28;20032;-43
2023/04/22 00:25:39;;;;;;;144.30;50.50;;;;;;;7.67;100.00;100827.88;5049315;28;20040;-44
2023/04/22 00:28:05;;;;;;;142.32;51.30;;;;;;;7.65;100.00;100829.03;5033147;28;20041;-44
2023/04/22 00:30:30;;;;;;;148.98;51.45;;;;;;;7.62;100.00;100830.19;5055607;28;20102;-42
2023/04/22 00:32:55;;;;;;;165.52;52.40;;;;;;;7.60;100.00;100839.38;5053350;28;20043;-44
2023/04/22 00:35:21;;;;;;;152.63;50.58;;;;;;;7.54;100.00;100838.19;5050628;28;20035;-42
2023/04/22 00:37:46;;;;;;;159.98;51.50;;;;;;;7.49;100.00;100840.53;5049895;28;20032;-39
2023/04/22 00:40:11;;;;;;;153.18;52.33;;;;;;;7.48;100.00;100839.69;5050412;28;20025;-44
2023/04/22 00:42:37;;;;;;;150.75;52.30;;;;;;;7.44;100.00;100837.50;5032395;28;20434;-40
2023/04/22 00:45:04;;;;;;;154.43;52.05;;;;;;;7.45;100.00;100839.16;5053660;28;20475;-41
2023/04/22 00:47:31;;;;;;;142.75;48.33;;;;;;;7.43;100.00;100838.50;5048980;28;20037;-43
2023/04/22 00:49:58;;;;;;;135.68;45.35;;;;;;;7.46;100.00;100843.53;5050642;28;20538;-41
2023/04/22 00:52:23;;;;;;;157.63;46.50;;;;;;;7.44;100.00;100842.84;5070114;28;20076;-44
2023/04/22 00:54:49;;;;;;;130.60;43.58;;;;;;;7.44;100.00;100842.84;5059380;28;20029;-42
2023/04/22 00:57:14;;;;;;;129.05;44.83;;;;;;;7.45;100.00;100849.88;5032652;28;20029;-43
2023/04/22 00:59:40;;;;;;;124.55;45.15;;;;;;;7.46;100.00;100838.19;5055071;28;20029;-46
2023/04/22 01:02:06;;;;;;;129.73;44.55;;;;;;;7.40;100.00;100830.81;5058707;28;20029;-41
2023/04/22 01:04:31;;;;;;;134.85;43.38;;;;;;;7.41;100.00;100832.47;5050437;28;20078;-43
2023/04/22 01:06:57;;;;;;;131.68;44.17;;;;;;;7.39;100.00;100835.28;5049658;28;20116;-42
2023/04/22 01:09:23;;;;;;;133.88;45.67;;;;;;;7.35;100.00;100827.78;5053224;28;20108;-43
2023/04/22 01:11:48;;;;;;;141.18;48.03;;;;;;;7.31;100.00;100831.75;5050801;28;20044;-44
2023/04/22 01:14:14;;;;;;;151.02;50.80;;;;;;;7.28;100.00;100832.91;5064273;28;20020;-41
2023/04/22 01:16:42;;;;;;;144.20;48.58;;;;;;;7.30;100.00;100835.44;5050160;28;20037;-44
2023/04/22 01:19:07;;;;;;;143.90;47.50;;;;;;;7.26;100.00;100838.41;5063749;28;20032;-43
2023/04/22 01:21:34;;;;;;;157.38;51.30;;;;;;;7.27;100.00;100833.94;5057657;28;20021;-40
2023/04/22 01:24:00;;;;;;;160.07;52.67;;;;;;;7.24;100.00;100826.19;5052237;28;20025;-43
2023/04/22 01:26:25;;;;;;;159.85;53.80;;;;;;;7.28;100.00;100837.44;5053785;28;20497;-42
2023/04/22 01:28:51;;;;;;;153.38;49.05;;;;;;;7.27;100.00;100831.25;5052534;28;20083;-42
2023/04/22 01:31:17;;;;;;;150.35;51.88;;;;;;;7.26;100.00;100835.75;5055487;28;20115;-45
2023/04/22 01:33:43;;;;;;;145.50;51.45;;;;;;;7.27;100.00;100828.56;5068763;28;20036;-41
2023/04/22 01:36:09;;;;;;;171.63;51.33;;;;;;;7.28;100.00;100832.09;5052328;28;20017;-41
2023/04/22 01:38:36;;;;;;;151.90;50.70;;;;;;;7.26;100.00;100829.56;5053255;28;20390;-45
2023/04/22 01:41:01;;;;;;;152.77;49.85;;;;;;;7.18;100.00;100822.31;5036553;28;20025;-46
2023/04/22 01:43:29;;;;;;;148.63;48.15;;;;;;;7.19;100.00;100824.03;5054483;28;20032;-43
2023/04/22 01:45:55;;;;;;;144.02;50.22;;;;;;;7.14;100.00;100826.34;5052451;28;20159;-42
2023/04/22 01:48:20;;;;;;;149.25;49.20;;;;;;;7.10;100.00;100819.59;5060096;28;20068;-42
2023/04/22 01:50:46;;;;;;;152.68;50.50;;;;;;;7.10;100.00;100819.59;5069814;28;20045;-42
2023/04/22 01:53:11;;;;;;;159.55;50.75;;;;;;;7.05;100.00;100819.25;5064240;28;20115;-44
2023/04/22 01:55:37;;;;;;;156.35;49.40;;;;;;;7.01;100.00;100815.22;5053108;28;20036;-44
2023/04/22 01:58:03;;;;;;;161.70;51.35;;;;;;;6.96;100.00;100812.19;5066069;28;20033;-42
2023/04/22 02:00:29;;;;;;;170.50;53.78;;;;;;;6.94;100.00;100814.19;5056516;28;20033;-41
2023/04/22 02:02:54;;;;;;;147.75;49.25;;;;;;;6.88;100.00;100812.16;5054095;28;20082;-40
2023/04/22 02:05:20;;;;;;;145.65;49.88;;;;;;;6.86;100.00;100811.47;5059509;28;20112;-43
2023/04/22 02:07:46;;;;;;;160.77;52.10;;;;;;;6.83;100.00;100817.97;5071329;28;20048;-41
2023/04/22 02:10:11;;;;;;;156.73;50.30;;;;;;;6.81;100.00;100818.13;5065873;28;20445;-40
2023/04/22 02:12:37;;;;;;;153.70;50.15;;;;;;;6.80;100.00;100811.09;5056467;28;20016;-41
2023/04/22 02:15:03;;;;;;;160.63;52.13;;;;;;;6.80;100.00;100808.41;5071202;28;20032;-44
2023/04/22 02:17:28;;;;;;;170.13;54.95;;;;;;;6.77;100.00;100808.75;5062801;28;20048;-41
2023/04/22 02:19:54;;;;;;;157.65;51.03;;;;;;;6.73;100.00;100804.69;5060879;28;20028;-42
2023/04/22 02:22:20;;;;;;;164.77;53.30;;;;;;;6.72;100.00;100819.06;5060175;28;20041;-45
2023/04/22 02:24:46;;;;;;;180.77;55.22;;;;;;;6.70;100.00;100810.34;5058305;28;20128;-47
2023/04/22 02:27:11;;;;;;;167.90;52.47;;;;;;;6.70;100.00;100798.81;5056219;28;20052;-41
2023/04/22 02:29:36;;;;;;;166.18;55.67;;;;;;;6.68;100.00;100803.50;5051926;28;20059;-45
2023/04/22 02:32:02;;;;;;;169.07;53.60;;;;;;;6.65;100.00;100801.97;5060812;28;20021;-44
2023/04/22 02:34:27;;;;;;;153.27;50.65;;;;;;;6.64;100.00;100811.00;5062526;28;20031;-47
2023/04/22 02:36:53;;;;;;;169.82;55.60;;;;;;;6.71;100.00;100803.16;5056673;28;20482;-42
2023/04/22 02:39:18;;;;;;;163.50;53.85;;;;;;;6.71;100.00;100797.81;5052729;28;20037;-42
2023/04/22 02:41:43;;;;;;;156.40;53.78;;;;;;;6.71;100.00;100795.97;5052476;28;20112;-42
2023/04/22 02:44:09;;;;;;;174.85;54.63;;;;;;;6.72;100.00;100794.16;5057320;28;20118;-42
2023/04/22 02:46:34;;;;;;;167.35;53.78;;;;;;;6.65;100.00;100793.94;5054829;28;20124;-43
2023/04/22 02:48:59;;;;;;;167.93;54.58;;;;;;;6.65;100.00;100785.94;5062170;28;20363;-43
2023/04/22 02:51:25;;;;;;;159.50;53.92;;;;;;;6.65;100.00;100790.44;5062467;28;20396;-43
2023/04/22 02:53:51;;;;;;;184.23;58.38;;;;;;;6.66;100.00;100794.78;5072460;28;20375;-44
2023/04/22 02:56:17;;;;;;;189.00;59.35;;;;;;;6.66;100.00;100792.09;5071114;28;20417;-42
2023/04/22 02:58:42;;;;;;;200.95;61.28;;;;;;;6.65;100.00;100780.56;5058361;28;20060;-42
2023/04/22 03:01:07;;;;;;;184.95;58.13;;;;;;;6.66;100.00;100789.44;5053979;28;20392;-44
2023/04/22 03:03:33;;;;;;;195.30;61.97;;;;;;;6.62;100.00;100788.09;5069167;28;20104;-46
2023/04/22 03:05:58;;;;;;;202.88;61.47;;;;;;;6.61;100.00;100776.56;5071807;28;20056;-41
2023/04/22 03:08:24;;;;;;;193.43;61.92;;;;;;;6.60;100.00;100780.22;5071857;28;20389;-42
2023/04/22 03:10:50;;;;;;;198.13;63.00;;;;;;;6.60;100.00;100774.84;5064056;28;20470;-42
2023/04/22 03:13:15;;;;;;;200.95;62.53;;;;;;;6.58;100.00;100780.38;5050708;28;20020;-40
2023/04/22 03:15:40;;;;;;;190.57;61.17;;;;;;;6.64;100.00;100775.41;5056808;28;20545;-42
2023/04/22 03:18:06;;;;;;;198.82;64.47;;;;;;;6.65;100.00;100777.91;5067257;28;20024;-41
2023/04/22 03:20:31;;;;;;;206.07;65.38;;;;;;;6.61;100.00;100779.22;5060426;28;20055;-46
2023/04/22 03:22:57;;;;;;;222.98;68.55;;;;;;;6.60;100.00;100780.22;5053629;28;20040;-43
2023/04/22 03:25:22;;;;;;;209.40;65.30;;;;;;;6.53;100.00;100772.00;5059853;28;20118;-43
2023/04/22 03:27:47;;;;;;;231.73;69.68;;;;;;;6.53;100.00;100766.66;5048538;28;20033;-42
2023/04/22 03:30:13;;;;;;;205.38;65.53;;;;;;;6.59;100.00;100757.16;5053413;28;20186;-40
2023/04/22 03:32:39;;;;;;;217.07;69.32;;;;;;;6.64;100.00;100765.53;5057512;28;20021;-44
2023/04/22 03:35:04;;;;;;;226.43;72.03;;;;;;;6.62;100.00;100759.50;5055515;28;20044;-42
2023/04/22 03:37:30;;;;;;;225.02;68.88;;;;;;;6.61;100.00;100757.84;5066097;28;20032;-45
2023/04/22 03:39:55;;;;;;;223.45;69.18;;;;;;;6.61;100.00;100757.84;5050445;28;20032;-43
2023/04/22 03:42:20;;;;;;;224.05;69.22;;;;;;;6.62;100.00;100761.34;5050010;28;20025;-42
2023/04/22 03:44:46;;;;;;;227.60;67.97;;;;;;;6.70;100.00;100770.25;5051845;28;20368;-43
2023/04/22 03:47:11;;;;;;;225.77;69.47;;;;;;;6.71;100.00;100761.22;5051024;28;20016;-41
2023/04/22 03:49:36;;;;;;;227.73;68.38;;;;;;;6.73;100.00;100761.91;5049639;28;20055;-45
2023/04/22 03:52:02;;;;;;;224.43;70.80;;;;;;;6.71;100.00;100758.53;5066591;28;20656;-43
2023/04/22 03:54:28;;;;;;;246.40;70.93;;;;;;;6.72;100.00;100748.69;5057267;28;20097;-42
2023/04/22 03:56:53;;;;;;;252.73;72.85;;;;;;;6.74;100.00;100750.22;5050349;28;20031;-44
2023/04/22 03:59:19;;;;;;;232.30;72.10;;;;;;;6.72;100.00;100746.84;5062847;28;20037;-41
2023/04/22 04:01:49;;;;;;;238.77;69.85;;;;;;;6.73;100.00;100743.16;5051718;28;20486;-43
2023/04/22 04:04:14;;;;;;;248.50;72.53;;;;;;;6.71;100.00;100734.47;5058848;28;20032;-41
2023/04/22 04:06:40;;;;;;;228.48;71.93;;;;;;;6.73;100.00;100734.31;5047837;28;20112;-42
2023/04/22 04:09:05;;;;;;;230.73;71.68;;;;;;;6.72;100.00;100741.50;5060348;28;20410;-43
2023/04/22 04:11:30;;;;;;;239.35;72.60;;;;;;;6.70;100.00;100738.16;5050879;28;20045;-41
2023/04/22 04:13:56;;;;;;;233.30;70.57;;;;;;;6.75;100.00;100730.50;5049502;28;20222;-41
2023/04/22 04:16:21;;;;;;;232.52;71.63;;;;;;;6.78;100.00;100740.88;5047393;28;20051;-43
2023/04/22 04:18:50;;;;;;;236.23;71.70;;;;;;;6.71;100.00;100745.16;5060249;28;20036;-41
2023/04/22 04:21:15;;;;;;;233.20;72.18;;;;;;;6.75;100.00;100730.50;5054800;28;20021;-44
2023/04/22 04:23:41;;;;;;;239.52;72.68;;;;;;;6.71;100.00;100728.28;5051431;28;20039;-41
2023/04/22 04:26:07;;;;;;;236.38;71.10;;;;;;;6.65;100.00;100727.09;5066787;28;20185;-40
2023/04/22 04:28:33;;;;;;;238.05;73.00;;;;;;;6.65;100.00;100729.75;5054633;28;20067;-41
2023/04/22 04:30:59;;;;;;;236.27;73.28;;;;;;;6.65;100.00;100728.94;5052445;28;20482;-41
2023/04/22 04:33:24;;;;;;;225.52;70.10;;;;;;;6.66;100.00;100728.78;5055197;28;20061;-43
2023/04/22 04:35:50;;;;;;;230.55;68.80;;;;;;;6.69;100.00;100725.78;5058659;28;20545;-41
2023/04/22 04:38:16;;;;;;;232.63;73.55;;;;;;;6.70;100.00;100732.81;5060563;28;20032;-43
2023/04/22 04:40:44;;;;;;;231.40;70.55;;;;;;;6.74;100.00;100726.16;5067652;28;20522;-41
2023/04/22 04:43:09;;;;;;;249.38;72.38;;;;;;;6.71;100.00;100729.13;5059502;28;20096;-43
2023/04/22 04:45:38;;;;;;;241.50;73.78;;;;;;;6.71;100.00;100729.13;5050543;28;20425;-41
2023/04/22 04:48:05;;;;;;;235.55;73.50;;;;;;;6.74;100.00;100728.81;5055682;28;20032;-42
2023/04/22 04:50:31;;;;;;;242.18;72.20;;;;;;;6.78;100.00;100734.69;5068146;28;20106;-40
2023/04/22 04:52:57;;;;;;;239.50;71.97;;;;;;;6.79;100.00;100731.84;5068200;28;20059;-39
2023/04/22 04:55:22;;;;;;;240.50;72.95;;;;;;;6.81;100.00;100719.13;5055664;28;20027;-42
2023/04/22 04:57:47;;;;;;;256.25;76.35;;;;;;;6.85;100.00;100726.88;5063271;28;20082;-40
2023/04/22 05:00:13;;;;;;;245.10;71.38;;;;;;;6.89;100.00;100729.03;5069011;28;20367;-41
2023/04/22 05:02:39;;;;;;;239.18;72.20;;;;;;;6.93;100.00;100721.53;5068634;28;20037;-41
2023/04/22 05:05:05;;;;;;;242.57;74.93;;;;;;;6.96;100.00;100721.22;5055142;28;20057;-44
2023/04/22 05:07:32;;;;;;;240.95;71.97;;;;;;;6.97;100.00;100714.84;5067021;28;20515;-43
2023/04/22 05:09:59;;;;;;;230.02;69.60;;;;;;;7.00;100.00;100709.19;5057642;28;20040;-40
2023/04/22 05:12:24;;;;;;;237.93;74.35;;;;;;;7.04;100.00;100707.88;5058763;28;20027;-40
2023/04/22 05:14:50;;;;;;;238.70;71.85;;;;;;;7.06;100.00;100700.53;5051199;28;20107;-40
2023/04/22 05:17:15;;;;;;;224.65;71.38;;;;;;;7.09;100.00;100705.53;5044962;28;20490;-41
2023/04/22 05:19:40;;;;;;;241.75;72.93;;;;;;;7.15;100.00;100709.41;5057294;28;20577;-45
2023/04/22 05:22:07;;;;;;;241.05;72.00;;;;;;;7.15;100.00;100715.59;5059813;28;20035;-43
2023/04/22 05:24:32;;;;;;;237.20;72.30;;;;;;;7.20;100.00;100725.81;5049633;28;20107;-42
2023/04/22 05:26:58;;;;;;;228.13;69.97;;;;;;;7.21;100.00;100736.38;5049455;28;20390;-43
2023/04/22 05:29:24;;;;;;;228.13;71.95;;;;;;;7.22;100.00;100740.72;5050045;28;20425;-41
2023/04/22 05:31:49;;;;;;;230.15;71.15;;;;;;;7.24;100.00;100741.41;5049845;28;20406;-41
2023/04/22 05:34:14;;;;;;;236.95;73.43;;;;;;;7.29;100.00;100734.69;5049335;28;20040;-40
2023/04/22 05:36:40;;;;;;;231.85;71.55;;;;;;;7.32;100.00;100735.22;5049112;28;20017;-40
2023/04/22 05:39:05;;;;;;;221.35;70.65;;;;;;;7.40;100.00;100739.75;5032056;28;20063;-40
2023/04/22 05:41:31;;;;;;;238.35;72.82;;;;;;;7.44;100.00;100730.38;5067430;28;20025;-44
2023/04/22 05:43:56;;;;;;;237.70;78.20;;;;;;;7.51;100.00;100741.28;5066945;28;20067;-41
2023/04/22 05:46:21;;;;;;;223.90;70.07;;;;;;;7.51;100.00;100736.78;5068777;28;20036;-43
2023/04/22 05:48:47;;;;;;;232.23;73.80;;;;;;;7.55;100.00;100738.09;5069391;28;20488;-43
2023/04/22 05:51:13;;;;;;;225.88;72.70;;;;;;;7.52;100.00;100743.78;5050920;28;20644;-40
2023/04/22 05:53:38;;;;;;;243.15;73.60;;;;;;;7.60;100.00;100748.31;5060872;28;20029;-41
2023/04/22 05:56:03;;;;;;;224.18;71.93;;;;;;;7.66;100.00;100743.16;5056543;28;20477;-41
2023/04/22 05:58:29;;;;;;;231.93;75.97;;;;;;;7.74;100.00;100745.00;5050786;28;20059;-42
2023/04/22 06:00:54;;;;;;;227.52;74.40;;;;;;;7.80;100.00;100736.31;5049017;28;20550;-42
2023/04/22 06:03:19;;;;;;;221.18;73.78;;;;;;;7.82;100.00;100733.44;5049698;28;20032;-40
2023/04/22 06:05:45;;;;;;;218.48;72.47;;;;;;;7.91;100.00;100727.09;5056646;28;20032;-42
2023/04/22 06:08:10;;;;;;;210.05;70.05;;;;;;;7.97;100.00;100726.41;5045989;28;20037;-41
2023/04/22 06:10:36;;;;;;;201.13;68.38;;;;;;;8.04;100.00;100719.38;5058349;28;20024;-43
2023/04/22 06:13:01;;;;;;;221.13;72.50;;;;;;;8.05;100.00;100722.91;5052729;28;20120;-42
2023/04/22 06:15:27;;;;;;;204.70;69.68;;;;;;;8.11;100.00;100717.72;5070024;28;20067;-42
2023/04/22 06:17:52;;;;;;;206.52;69.32;;;;;;;8.17;100.00;100720.72;5071633;28;20029;-44
2023/04/22 06:20:17;;;;;;;210.05;70.30;;;;;;;8.24;100.00;100714.53;5069673;28;20391;-41
2023/04/22 06:22:43;;;;;;;207.23;71.65;;;;;;;8.16;100.00;100719.03;5060819;28;20060;-42
2023/04/22 06:25:09;;;;;;;206.50;68.63;;;;;;;8.14;100.00;100712.00;5046427;28;20094;-41
2023/04/22 06:27:34;;;;;;;190.25;67.40;;;;;;;8.15;100.00;100702.13;5047290;28;20070;-45
2023/04/22 06:30:00;;;;;;;184.80;62.00;;;;;;;8.29;100.00;100695.22;5054341;28;20387;-42
2023/04/22 06:32:26;;;;;;;193.48;69.47;;;;;;;8.43;100.00;100697.25;5064276;28;20203;-40
2023/04/22 06:34:52;;;;;;;175.88;62.47;;;;;;;8.49;100.00;100688.50;5057396;28;20431;-46
2023/04/22 06:37:17;;;;;;;195.77;70.60;;;;;;;8.59;100.00;100687.47;5052398;28;20037;-44
2023/04/22 06:39:42;;;;;;;182.48;65.82;;;;;;;8.68;100.00;100694.47;5056033;28;20047;-39
2023/04/22 06:42:08;;;;;;;174.60;65.72;;;;;;;8.66;100.00;100693.81;5049172;28;20077;-41
2023/04/22 06:44:33;;;;;;;169.48;63.85;;;;;;;8.81;100.00;100686.72;5036892;28;20437;-45
2023/04/22 06:46:58;;;;;;;166.75;61.50;;;;;;;8.87;100.00;100691.38;5061537;28;20060;-41
2023/04/22 06:49:24;;;;;;;167.73;60.70;;;;;;;9.02;100.00;100692.31;5071252;28;20056;-42
2023/04/22 06:51:49;;;;;;;157.30;61.90;;;;;;;9.05;100.00;100692.97;5057808;28;20079;-44
2023/04/22 06:54:15;;;;;;;156.18;57.38;;;;;;;9.11;100.00;100682.38;5053778;28;20071;-43
2023/04/22 06:56:40;;;;;;;148.27;56.47;;;;;;;9.06;100.00;100683.91;5034524;28;20040;-43
2023/04/22 06:59:06;;;;;;;160.10;60.25;;;;;;;9.12;100.00;100678.69;5051486;28;20127;-42
2023/04/22 07:01:32;;;;;;;154.88;58.78;;;;;;;9.45;100.00;100683.84;5052283;28;20045;-41
2023/04/22 07:03:57;;;;;;;149.55;57.00;;;;;;;9.64;100.00;100677.16;5052362;28;20035;-41
2023/04/22 07:06:23;;;;;;;147.07;58.33;;;;;;;9.82;100.00;100680.38;5052188;28;20107;-43
2023/04/22 07:08:48;;;;;;;125.07;51.42;;;;;;;9.86;100.00;100670.09;5050537;28;20029;-41
2023/04/22 07:11:13;;;;;;;126.63;51.97;;;;;;;9.92;100.00;100671.22;5066186;28;20032;-40
2023/04/22 07:13:39;;;;;;;132.85;53.03;;;;;;;10.14;100.00;100669.47;5072336;28;20017;-40
2023/04/22 07:16:05;;;;;;;122.22;52.50;;;;;;;10.26;100.00;100660.78;5063260;28;20037;-41
2023/04/22 07:18:30;;;;;;;120.63;51.67;;;;;;;10.16;100.00;100648.63;5072707;28;20097;-44
2023/04/22 07:20:56;;;;;;;118.18;49.65;;;;;;;10.29;100.00;100644.34;5071763;28;20432;-43
2023/04/22 07:23:22;;;;;;;123.35;52.22;;;;;;;10.57;100.00;100645.53;5071941;28;20044;-41
2023/04/22 07:25:47;;;;;;;109.85;46.78;;;;;;;10.65;100.00;100642.72;5069233;28;20178;-41
2023/04/22 07:28:13;;;;;;;111.28;47.28;;;;;;;10.85;100.00;100642.97;5064759;28;20021;-40
2023/04/22 07:30:38;;;;;;;107.00;46.28;;;;;;;11.46;100.00;100646.16;5049221;28;20049;-41
2023/04/22 07:33:03;;;;;;;106.57;45.25;;;;;;;11.91;100.00;100641.38;5048788;28;20029;-41
2023/04/22 07:35:29;;;;;;;99.72;44.00;;;;;;;12.69;100.00;100638.53;5048515;28;20310;-40
2023/04/22 07:37:55;;;;;;;89.25;43.45;;;;;;;12.91;100.00;100634.69;5049750;28;20028;-41
2023/04/22 07:40:20;;;;;;;88.53;42.65;;;;;;;12.73;100.00;100637.09;5046455;28;20091;-43
2023/04/22 07:42:45;;;;;;;88.68;41.50;;;;;;;12.78;100.00;100634.63;5048439;28;20033;-43
2023/04/22 07:45:11;;;;;;;99.50;45.15;;;;;;;12.61;100.00;100627.88;5049595;28;20116;-41
2023/04/22 07:47:37;;;;;;;93.88;41.65;;;;;;;13.25;100.00;100624.81;5049683;28;20029;-41
2023/04/22 07:50:03;;;;;;;88.90;40.15;;;;;;;14.24;100.00;100615.88;5049667;28;20052;-40
2023/04/22 07:52:29;;;;;;;71.03;35.88;;;;;;;14.73;100.00;100602.84;5048013;28;20025;-43
2023/04/22 07:54:55;;;;;;;73.68;36.42;;;;;;;14.82;100.00;100603.41;5048388;28;20479;-41
2023/04/22 07:57:21;;;;;;;68.88;34.17;;;;;;;15.60;100.00;100595.00;5048584;28;20471;-40
2023/04/22 07:59:50;;;;;;;65.50;31.95;;;;;;;15.13;100.00;100576.34;5049048;28;20071;-40
2023/04/22 08:02:15;;;;;;;68.60;33.85;;;;;;;14.91;100.00;100572.31;5048676;28;20091;-41
2023/04/22 08:04:41;;;;;;;63.40;33.05;;;;;;;14.89;100.00;100577.94;5048877;28;20029;-41
2023/04/22 08:07:06;;;;;;;73.57;33.90;;;;;;;14.06;100.00;100567.00;5048179;28;20025;-42
2023/04/22 08:09:32;;;;;;;80.03;35.42;;;;;;;14.01;100.00;100569.50;5048020;28;20485;-39
2023/04/22 08:11:57;;;;;;;74.63;35.58;;;;;;;13.71;100.00;100564.53;5044438;28;20041;-40
2023/04/22 08:14:23;;;;;;;69.90;34.63;;;;;;;13.44;100.00;100573.72;5051210;28;20100;-40
2023/04/22 08:16:53;;;;;;;69.77;33.63;;;;;;;13.19;100.00;100576.97;5049865;28;20035;-42
2023/04/22 08:19:19;;;;;;;72.38;36.25;;;;;;;13.09;100.00;100574.69;5050738;28;20040;-42
2023/04/22 08:21:45;;;;;;;65.82;32.08;;;;;;;13.18;100.00;100565.31;5051102;28;20025;-41
2023/04/22 08:24:11;;;;;;;68.80;33.65;;;;;;;13.27;100.00;100566.00;5050456;28;20033;-40
2023/04/22 08:26:39;;;;;;;72.47;33.10;;;;;;;13.35;100.00;100565.81;5050998;28;20482;-40
2023/04/22 08:29:05;;;;;;;68.28;32.30;;;;;;;13.16;100.00;100570.13;5050848;28;20036;-43
2023/04/22 08:31:30;;;;;;;67.70;31.67;;;;;;;13.32;100.00;100571.63;5049172;28;20025;-41
2023/04/22 08:33:56;;;;;;;62.85;31.60;;;;;;;13.63;100.00;100577.44;5058074;28;20033;-47
2023/04/22 08:36:24;;;;;;;63.55;31.05;;;;;;;13.98;100.00;100572.63;5068378;28;20029;-41
2023/04/22 08:38:50;;;;;;;62.53;31.55;;;;;;;14.49;100.00;100555.63;5066324;28;20087;-39
2023/04/22 08:41:17;;;;;;;56.60;27.00;;;;;;;15.33;100.00;100559.94;5068730;28;20028;-40
2023/04/22 08:43:44;;;;;;;49.78;27.15;;;;;;;16.26;100.00;100555.53;5050113;28;20124;-42
2023/04/22 08:46:09;;;;;;;42.05;22.00;;;;;;;17.46;100.00;100554.75;5067342;28;20043;-41
2023/04/22 08:48:35;;;;;;;50.03;24.13;;;;;;;18.28;94.82;100550.38;5050686;28;20119;-40
2023/04/22 08:51:02;;;;;;;44.20;22.25;;;;;;;16.89;92.10;100552.47;5066959;28;20052;-41
2023/04/22 08:53:28;;;;;;;44.63;23.17;;;;;;;16.25;93.60;100551.19;5068761;28;20110;-42
2023/04/22 08:55:55;;;;;;;47.60;24.80;;;;;;;16.26;98.51;100547.41;5068230;28;20021;-41
2023/04/22 08:58:21;;;;;;;45.28;24.90;;;;;;;16.92;100.00;100542.19;5067114;28;20106;-39
2023/04/22 09:00:47;;;;;;;40.78;21.90;;;;;;;18.50;92.14;100532.31;5050729;28;20056;-45
2023/04/22 09:03:14;;;;;;;42.05;22.83;;;;;;;18.79;85.60;100519.53;5066796;28;20071;-42
2023/04/22 09:05:40;;;;;;;36.97;22.25;;;;;;;17.74;89.82;100515.94;5067006;28;20109;-43
2023/04/22 09:08:06;;;;;;;38.17;19.40;;;;;;;17.03;86.45;100514.22;5067540;28;20501;-40
2023/04/22 09:10:35;;;;;;;32.17;18.80;;;;;;;16.15;88.09;100515.59;5067027;28;20021;-41
2023/04/22 09:13:02;;;;;;;29.25;15.82;;;;;;;15.81;89.25;100501.53;5067194;28;20020;-40
2023/04/22 09:15:28;;;;;;;23.33;13.85;;;;;;;15.35;89.79;100494.66;5050293;28;20112;-43
2023/04/22 09:17:54;;;;;;;24.75;12.52;;;;;;;15.39;93.67;100495.03;5067851;28;20035;-42
2023/04/22 09:20:25;;;;;;;32.33;18.10;;;;;;;15.23;97.50;100493.72;5069431;28;20123;-42
2023/04/22 09:22:51;;;;;;;35.97;19.52;;;;;;;14.78;100.00;100501.97;5052338;28;20028;-40
2023/04/22 09:25:20;;;;;;;36.72;19.45;;;;;;;14.60;100.00;100513.50;5070306;28;20097;-40
2023/04/22 09:27:52;;;;;;;35.95;19.98;;;;;;;14.44;100.00;100504.81;5070294;28;20028;-41
2023/04/22 09:30:23;;;;;;;32.75;18.75;;;;;;;14.32;100.00;100502.97;5070482;28;20040;-42
2023/04/22 09:32:54;;;;;;;34.83;17.67;;;;;;;14.35;100.00;100511.53;5069803;28;20039;-45
2023/04/22 09:35:34;;;;;;;34.13;17.58;;;;;;;14.14;100.00;100509.09;5052715;28;20528;-42
2023/04/22 09:38:02;;;;;;;29.30;17.10;;;;;;;13.96;100.00;100512.50;5070895;28;20035;-40
2023/04/22 09:40:27;;;;;;;;;;;;;;;13.92;100.00;100516.66;5069489;28;20420;-42
2023/04/22 09:42:55;;;;;;;37.03;18.98;;;;;;;13.86;100.00;100517.50;5070308;28;19935;-42
2023/04/22 09:45:30;;;;;;;31.35;17.77;;;;;;;13.87;100.00;100525.41;5073669;28;20086;-40
2023/04/22 09:47:59;;;;;;;30.05;17.20;;;;;;;13.91;100.00;100542.06;5074197;28;20039;-42
2023/04/22 09:50:26;;;;;;;35.28;19.58;;;;;;;13.82;100.00;100550.41;5073687;28;20540;-44
2023/04/22 09:52:57;;;;;;;36.25;20.20;;;;;;;13.90;100.00;100551.19;5072672;28;20059;-43
2023/04/22 09:55:24;;;;;;;35.58;18.92;;;;;;;14.04;100.00;100555.56;5074442;28;20103;-41
2023/04/22 09:57:51;;;;;;;31.02;17.42;;;;;;;14.20;100.00;100552.38;5060455;28;20024;-44
2023/04/22 10:00:17;;;;;;;33.85;18.05;;;;;;;14.74;100.00;100557.59;5043800;28;20120;-42
2023/04/22 10:02:43;;;;;;;32.05;17.98;;;;;;;14.97;100.00;100562.50;5057862;28;20032;-40
2023/04/22 10:05:08;;;;;;;31.85;19.08;;;;;;;15.32;100.00;100560.16;5066682;28;20028;-42
2023/04/22 10:07:34;;;;;;;31.83;18.08;;;;;;;15.46;100.00;100559.00;5051742;28;20029;-41
2023/04/22 10:10:00;;;;;;;31.02;17.90;;;;;;;15.29;100.00;100563.31;5052781;28;20098;-39
2023/04/22 10:12:26;;;;;;;43.38;17.88;;;;;;;15.41;100.00;100558.84;5062132;28;20035;-40
2023/04/22 10:14:51;;;;;;;30.42;17.20;;;;;;;15.53;100.00;100558.94;5056906;28;20029;-41
2023/04/22 10:17:17;;;;;;;31.48;17.70;;;;;;;15.59;100.00;100566.22;5056581;28;20087;-41
2023/04/22 10:19:45;;;;;;;37.75;17.20;;;;;;;15.37;100.00;100568.47;5052933;28;20041;-41
2023/04/22 10:22:11;;;;;;;36.47;18.90;;;;;;;14.95;100.00;100565.41;5050962;28;20047;-41
2023/04/22 10:24:38;;;;;;;33.03;19.58;;;;;;;14.67;100.00;100558.47;5053729;28;20037;-44
2023/04/22 10:27:05;;;;;;;32.40;19.17;;;;;;;14.51;100.00;100561.66;5055099;28;20032;-42
2023/04/22 10:29:38;;;;;;;47.97;24.80;;;;;;;14.41;100.00;100556.69;5064082;28;20032;-43
2023/04/22 10:32:17;;;;;;;54.58;27.90;;;;;;;14.19;100.00;100561.56;5055107;28;20028;-42
2023/04/22 10:34:43;;;;;;;52.22;26.95;;;;;;;14.06;100.00;100542.66;5053627;28;20040;-42
2023/04/22 10:37:10;;;;;;;59.97;29.17;;;;;;;13.75;100.00;100549.56;5052206;28;20036;-43
2023/04/22 10:39:37;;;;;;;69.03;32.10;;;;;;;13.61;100.00;100564.13;5058470;28;20041;-42
2023/04/22 10:42:02;;;;;;;67.15;31.73;;;;;;;13.43;100.00;100569.31;5058480;28;20433;-43
2023/04/22 10:44:31;;;;;;;64.25;32.85;;;;;;;13.30;100.00;100579.09;5064295;28;20103;-41
2023/04/22 10:46:58;;;;;;;64.30;32.80;;;;;;;13.18;100.00;100581.53;5066584;28;20040;-41
2023/04/22 10:49:26;;;;;;;68.75;31.92;;;;;;;13.12;100.00;100576.97;5064696;28;20402;-43
2023/04/22 10:51:52;;;;;;;;;;;;;;;13.05;100.00;100576.09;5039291;28;20505;-41
2023/04/22 10:54:27;;;;;;;69.07;31.13;;;;;;;12.93;100.00;100567.78;5056890;28;19947;-41
2023/04/22 10:57:02;;;;;;;69.80;32.63;;;;;;;12.85;100.00;100559.88;5054190;28;20045;-41